sensor_id;sensor_type;location;lat;lon;timestamp;P1;durP1;ratioP1;P2;durP2;ratioP2
3997;SDS011;61314;53.444;9.902;2024-03-25T00:01:24;6.00;;;2.50;;
3997;SDS011;61314;53.444;9.902;2024-03-25T00:03:51;13.27;;;2.80;;
3997;SDS011;61314;53.444;9.902;2024-03-25T00:06:17;8.32;;;3.08;;
3997;SDS011;61314;53.444;9.902;2024-03-25T00:08:43;14.00;;;2.35;;
3997;SDS011;61314;53.444;9.902;2024-03-25T00:11:09;8.45;;;2.95;;
3997;SDS011;61314;53.444;9.902;2024-03-25T00:13:35;6.72;;;2.13;;
3997;SDS011;61314;53.444;9.902;2024-03-25T00:16:02;10.05;;;1.90;;
3997;SDS011;61314;53.444;9.902;2024-03-25T00:18:30;7.85;;;2.60;;
3997;SDS011;61314;53.444;9.902;2024-03-25T00:20:56;6.78;;;2.10;;
3997;SDS011;61314;53.444;9.902;2024-03-25T00:23:23;6.85;;;2.45;;
3997;SDS011;61314;53.444;9.902;2024-03-25T00:25:49;3.95;;;2.00;;
3997;SDS011;61314;53.444;9.902;2024-03-25T00:28:17;5.07;;;1.63;;
3997;SDS011;61314;53.444;9.902;2024-03-25T00:30:44;3.45;;;2.03;;
3997;SDS011;61314;53.444;9.902;2024-03-25T00:33:11;6.90;;;2.05;;
3997;SDS011;61314;53.444;9.902;2024-03-25T00:35:37;7.47;;;2.22;;
3997;SDS011;61314;53.444;9.902;2024-03-25T00:38:03;8.65;;;2.10;;
3997;SDS011;61314;53.444;9.902;2024-03-25T00:40:30;6.90;;;2.20;;
3997;SDS011;61314;53.444;9.902;2024-03-25T00:42:56;4.88;;;1.70;;
3997;SDS011;61314;53.444;9.902;2024-03-25T00:45:22;9.55;;;2.55;;
3997;SDS011;61314;53.444;9.902;2024-03-25T00:47:58;12.55;;;2.47;;
3997;SDS011;61314;53.444;9.902;2024-03-25T00:50:25;12.63;;;2.40;;
3997;SDS011;61314;53.444;9.902;2024-03-25T00:52:52;3.88;;;1.90;;
3997;SDS011;61314;53.444;9.902;2024-03-25T00:55:18;7.13;;;2.00;;
3997;SDS011;61314;53.444;9.902;2024-03-25T00:57:45;6.20;;;2.08;;
3997;SDS011;61314;53.444;9.902;2024-03-25T01:00:11;16.02;;;2.63;;
3997;SDS011;61314;53.444;9.902;2024-03-25T01:02:38;10.07;;;2.40;;
3997;SDS011;61314;53.444;9.902;2024-03-25T01:05:04;10.20;;;2.30;;
3997;SDS011;61314;53.444;9.902;2024-03-25T01:07:31;7.28;;;2.97;;
3997;SDS011;61314;53.444;9.902;2024-03-25T01:09:57;7.55;;;2.50;;
3997;SDS011;61314;53.444;9.902;2024-03-25T01:12:24;7.75;;;2.70;;
3997;SDS011;61314;53.444;9.902;2024-03-25T01:14:51;7.75;;;2.15;;
3997;SDS011;61314;53.444;9.902;2024-03-25T01:17:17;9.07;;;2.22;;
3997;SDS011;61314;53.444;9.902;2024-03-25T01:19:43;3.17;;;2.42;;
3997;SDS011;61314;53.444;9.902;2024-03-25T01:22:09;7.47;;;2.20;;
3997;SDS011;61314;53.444;9.902;2024-03-25T01:24:36;9.35;;;2.55;;
3997;SDS011;61314;53.444;9.902;2024-03-25T01:27:02;6.75;;;2.25;;
3997;SDS011;61314;53.444;9.902;2024-03-25T01:29:28;12.18;;;2.30;;
3997;SDS011;61314;53.444;9.902;2024-03-25T01:31:54;8.75;;;2.75;;
3997;SDS011;61314;53.444;9.902;2024-03-25T01:34:22;15.90;;;4.00;;
3997;SDS011;61314;53.444;9.902;2024-03-25T01:36:48;9.07;;;2.67;;
3997;SDS011;61314;53.444;9.902;2024-03-25T01:39:15;8.40;;;2.80;;
3997;SDS011;61314;53.444;9.902;2024-03-25T01:41:41;8.65;;;2.47;;
3997;SDS011;61314;53.444;9.902;2024-03-25T01:44:07;6.32;;;2.53;;
3997;SDS011;61314;53.444;9.902;2024-03-25T01:46:34;7.45;;;2.20;;
3997;SDS011;61314;53.444;9.902;2024-03-25T01:49:01;13.32;;;2.28;;
3997;SDS011;61314;53.444;9.902;2024-03-25T01:51:27;17.05;;;3.53;;
3997;SDS011;61314;53.444;9.902;2024-03-25T01:53:54;10.98;;;2.38;;
3997;SDS011;61314;53.444;9.902;2024-03-25T01:56:21;4.22;;;2.80;;
3997;SDS011;61314;53.444;9.902;2024-03-25T01:58:47;7.88;;;2.65;;
3997;SDS011;61314;53.444;9.902;2024-03-25T02:01:13;8.20;;;2.17;;
3997;SDS011;61314;53.444;9.902;2024-03-25T02:03:40;5.18;;;2.00;;
3997;SDS011;61314;53.444;9.902;2024-03-25T02:06:09;12.20;;;2.22;;
3997;SDS011;61314;53.444;9.902;2024-03-25T02:08:36;7.18;;;2.55;;
3997;SDS011;61314;53.444;9.902;2024-03-25T02:11:02;14.77;;;2.55;;
3997;SDS011;61314;53.444;9.902;2024-03-25T02:13:29;12.90;;;2.08;;
3997;SDS011;61314;53.444;9.902;2024-03-25T02:15:55;6.05;;;2.38;;
3997;SDS011;61314;53.444;9.902;2024-03-25T02:18:21;8.30;;;2.55;;
3997;SDS011;61314;53.444;9.902;2024-03-25T02:20:48;8.82;;;2.30;;
3997;SDS011;61314;53.444;9.902;2024-03-25T02:23:14;7.43;;;1.80;;
3997;SDS011;61314;53.444;9.902;2024-03-25T02:25:41;7.93;;;2.28;;
3997;SDS011;61314;53.444;9.902;2024-03-25T02:28:08;7.15;;;2.33;;
3997;SDS011;61314;53.444;9.902;2024-03-25T02:30:34;11.45;;;2.45;;
3997;SDS011;61314;53.444;9.902;2024-03-25T02:33:02;5.32;;;2.40;;
3997;SDS011;61314;53.444;9.902;2024-03-25T02:35:28;7.50;;;2.33;;
3997;SDS011;61314;53.444;9.902;2024-03-25T02:37:54;4.57;;;2.22;;
3997;SDS011;61314;53.444;9.902;2024-03-25T02:40:21;9.43;;;2.30;;
3997;SDS011;61314;53.444;9.902;2024-03-25T02:42:48;7.22;;;2.20;;
3997;SDS011;61314;53.444;9.902;2024-03-25T02:45:14;12.48;;;3.10;;
3997;SDS011;61314;53.444;9.902;2024-03-25T02:47:41;9.45;;;2.70;;
3997;SDS011;61314;53.444;9.902;2024-03-25T02:50:07;11.98;;;2.20;;
3997;SDS011;61314;53.444;9.902;2024-03-25T02:52:33;12.57;;;2.70;;
3997;SDS011;61314;53.444;9.902;2024-03-25T02:54:59;5.43;;;2.58;;
3997;SDS011;61314;53.444;9.902;2024-03-25T02:57:26;4.13;;;2.13;;
3997;SDS011;61314;53.444;9.902;2024-03-25T02:59:52;13.20;;;2.42;;
3997;SDS011;61314;53.444;9.902;2024-03-25T03:02:18;6.72;;;3.05;;
3997;SDS011;61314;53.444;9.902;2024-03-25T03:04:45;4.75;;;2.20;;
3997;SDS011;61314;53.444;9.902;2024-03-25T03:07:11;10.32;;;2.40;;
3997;SDS011;61314;53.444;9.902;2024-03-25T03:09:37;9.00;;;3.33;;
3997;SDS011;61314;53.444;9.902;2024-03-25T03:12:04;11.55;;;2.67;;
3997;SDS011;61314;53.444;9.902;2024-03-25T03:14:30;9.40;;;2.58;;
3997;SDS011;61314;53.444;9.902;2024-03-25T03:16:56;6.22;;;2.22;;
3997;SDS011;61314;53.444;9.902;2024-03-25T03:19:30;9.98;;;2.58;;
3997;SDS011;61314;53.444;9.902;2024-03-25T03:21:56;2.47;;;2.00;;
3997;SDS011;61314;53.444;9.902;2024-03-25T03:24:22;8.13;;;2.42;;
3997;SDS011;61314;53.444;9.902;2024-03-25T03:26:49;7.03;;;2.17;;
3997;SDS011;61314;53.444;9.902;2024-03-25T03:29:15;12.10;;;2.45;;
3997;SDS011;61314;53.444;9.902;2024-03-25T03:31:41;3.47;;;1.88;;
3997;SDS011;61314;53.444;9.902;2024-03-25T03:34:08;6.78;;;1.98;;
3997;SDS011;61314;53.444;9.902;2024-03-25T03:36:34;6.78;;;3.05;;
3997;SDS011;61314;53.444;9.902;2024-03-25T03:39:00;3.58;;;2.28;;
3997;SDS011;61314;53.444;9.902;2024-03-25T03:41:26;4.18;;;1.70;;
3997;SDS011;61314;53.444;9.902;2024-03-25T03:43:52;5.40;;;2.10;;
3997;SDS011;61314;53.444;9.902;2024-03-25T03:46:18;4.07;;;2.20;;
3997;SDS011;61314;53.444;9.902;2024-03-25T03:48:44;5.28;;;2.30;;
3997;SDS011;61314;53.444;9.902;2024-03-25T03:51:11;4.43;;;2.47;;
3997;SDS011;61314;53.444;9.902;2024-03-25T03:53:37;3.50;;;1.55;;
3997;SDS011;61314;53.444;9.902;2024-03-25T03:56:04;3.50;;;1.60;;
3997;SDS011;61314;53.444;9.902;2024-03-25T03:58:33;3.97;;;1.98;;
3997;SDS011;61314;53.444;9.902;2024-03-25T04:01:00;3.45;;;2.10;;
3997;SDS011;61314;53.444;9.902;2024-03-25T04:03:26;3.08;;;1.50;;
3997;SDS011;61314;53.444;9.902;2024-03-25T04:05:53;6.28;;;1.73;;
3997;SDS011;61314;53.444;9.902;2024-03-25T04:08:19;2.47;;;1.23;;
3997;SDS011;61314;53.444;9.902;2024-03-25T04:10:45;4.70;;;1.83;;
3997;SDS011;61314;53.444;9.902;2024-03-25T04:13:12;3.08;;;2.00;;
3997;SDS011;61314;53.444;9.902;2024-03-25T04:15:38;7.97;;;1.60;;
3997;SDS011;61314;53.444;9.902;2024-03-25T04:18:05;4.25;;;1.73;;
3997;SDS011;61314;53.444;9.902;2024-03-25T04:20:38;2.63;;;1.27;;
3997;SDS011;61314;53.444;9.902;2024-03-25T04:23:05;3.10;;;2.53;;
3997;SDS011;61314;53.444;9.902;2024-03-25T04:25:32;3.58;;;1.90;;
3997;SDS011;61314;53.444;9.902;2024-03-25T04:27:58;3.60;;;1.90;;
3997;SDS011;61314;53.444;9.902;2024-03-25T04:30:25;4.65;;;2.03;;
3997;SDS011;61314;53.444;9.902;2024-03-25T04:32:51;4.47;;;2.28;;
3997;SDS011;61314;53.444;9.902;2024-03-25T04:35:18;2.83;;;1.98;;
3997;SDS011;61314;53.444;9.902;2024-03-25T04:37:44;4.82;;;1.65;;
3997;SDS011;61314;53.444;9.902;2024-03-25T04:40:11;5.65;;;1.95;;
3997;SDS011;61314;53.444;9.902;2024-03-25T04:42:39;6.13;;;1.75;;
3997;SDS011;61314;53.444;9.902;2024-03-25T04:45:06;5.78;;;2.20;;
3997;SDS011;61314;53.444;9.902;2024-03-25T04:47:32;6.28;;;2.13;;
3997;SDS011;61314;53.444;9.902;2024-03-25T04:49:58;6.32;;;2.20;;
3997;SDS011;61314;53.444;9.902;2024-03-25T04:52:25;3.17;;;1.70;;
3997;SDS011;61314;53.444;9.902;2024-03-25T04:54:51;5.22;;;1.73;;
3997;SDS011;61314;53.444;9.902;2024-03-25T04:57:17;3.92;;;1.80;;
3997;SDS011;61314;53.444;9.902;2024-03-25T04:59:43;5.05;;;2.17;;
3997;SDS011;61314;53.444;9.902;2024-03-25T05:02:09;5.15;;;1.88;;
3997;SDS011;61314;53.444;9.902;2024-03-25T05:04:36;5.25;;;2.40;;
3997;SDS011;61314;53.444;9.902;2024-03-25T05:07:02;5.65;;;3.20;;
3997;SDS011;61314;53.444;9.902;2024-03-25T05:09:28;4.22;;;1.55;;
3997;SDS011;61314;53.444;9.902;2024-03-25T05:11:54;5.93;;;3.15;;
3997;SDS011;61314;53.444;9.902;2024-03-25T05:14:21;3.50;;;2.00;;
3997;SDS011;61314;53.444;9.902;2024-03-25T05:16:47;3.78;;;1.60;;
3997;SDS011;61314;53.444;9.902;2024-03-25T05:19:14;5.22;;;2.10;;
3997;SDS011;61314;53.444;9.902;2024-03-25T05:21:40;3.88;;;1.95;;
3997;SDS011;61314;53.444;9.902;2024-03-25T05:24:06;7.07;;;1.67;;
3997;SDS011;61314;53.444;9.902;2024-03-25T05:26:33;3.47;;;1.60;;
3997;SDS011;61314;53.444;9.902;2024-03-25T05:28:59;2.67;;;1.88;;
3997;SDS011;61314;53.444;9.902;2024-03-25T05:31:25;6.53;;;1.90;;
3997;SDS011;61314;53.444;9.902;2024-03-25T05:33:51;4.32;;;1.60;;
3997;SDS011;61314;53.444;9.902;2024-03-25T05:36:17;2.00;;;1.73;;
3997;SDS011;61314;53.444;9.902;2024-03-25T05:38:44;2.60;;;1.80;;
3997;SDS011;61314;53.444;9.902;2024-03-25T05:41:10;3.90;;;1.80;;
3997;SDS011;61314;53.444;9.902;2024-03-25T05:43:36;5.18;;;2.40;;
3997;SDS011;61314;53.444;9.902;2024-03-25T05:46:03;4.65;;;2.30;;
3997;SDS011;61314;53.444;9.902;2024-03-25T05:48:29;2.63;;;2.42;;
3997;SDS011;61314;53.444;9.902;2024-03-25T05:50:59;3.15;;;1.70;;
3997;SDS011;61314;53.444;9.902;2024-03-25T05:53:26;5.50;;;2.13;;
3997;SDS011;61314;53.444;9.902;2024-03-25T05:55:52;4.90;;;2.05;;
3997;SDS011;61314;53.444;9.902;2024-03-25T05:58:19;4.15;;;1.92;;
3997;SDS011;61314;53.444;9.902;2024-03-25T06:00:49;8.20;;;2.80;;
3997;SDS011;61314;53.444;9.902;2024-03-25T06:03:15;4.95;;;3.03;;
3997;SDS011;61314;53.444;9.902;2024-03-25T06:05:43;8.40;;;2.45;;
3997;SDS011;61314;53.444;9.902;2024-03-25T06:08:09;7.07;;;2.50;;
3997;SDS011;61314;53.444;9.902;2024-03-25T06:10:43;6.25;;;3.10;;
3997;SDS011;61314;53.444;9.902;2024-03-25T06:13:10;2.83;;;2.33;;
3997;SDS011;61314;53.444;9.902;2024-03-25T06:15:36;5.53;;;2.38;;
3997;SDS011;61314;53.444;9.902;2024-03-25T06:18:02;4.13;;;2.80;;
3997;SDS011;61314;53.444;9.902;2024-03-25T06:20:29;5.25;;;2.97;;
3997;SDS011;61314;53.444;9.902;2024-03-25T06:22:55;10.85;;;3.20;;
3997;SDS011;61314;53.444;9.902;2024-03-25T06:25:21;4.57;;;2.78;;
3997;SDS011;61314;53.444;9.902;2024-03-25T06:27:47;10.43;;;3.40;;
3997;SDS011;61314;53.444;9.902;2024-03-25T06:30:13;4.50;;;3.35;;
3997;SDS011;61314;53.444;9.902;2024-03-25T06:32:58;10.57;;;3.17;;
3997;SDS011;61314;53.444;9.902;2024-03-25T06:35:43;7.78;;;2.83;;
3997;SDS011;61314;53.444;9.902;2024-03-25T06:38:10;9.73;;;3.72;;
3997;SDS011;61314;53.444;9.902;2024-03-25T06:40:37;5.35;;;3.50;;
3997;SDS011;61314;53.444;9.902;2024-03-25T06:43:04;8.18;;;4.05;;
3997;SDS011;61314;53.444;9.902;2024-03-25T06:45:30;5.55;;;3.38;;
3997;SDS011;61314;53.444;9.902;2024-03-25T06:47:57;10.48;;;4.05;;
3997;SDS011;61314;53.444;9.902;2024-03-25T06:50:23;5.70;;;3.90;;
3997;SDS011;61314;53.444;9.902;2024-03-25T06:52:49;16.00;;;4.80;;
3997;SDS011;61314;53.444;9.902;2024-03-25T06:55:16;10.02;;;4.40;;
3997;SDS011;61314;53.444;9.902;2024-03-25T06:57:43;4.57;;;3.47;;
3997;SDS011;61314;53.444;9.902;2024-03-25T07:00:10;3.55;;;3.25;;
3997;SDS011;61314;53.444;9.902;2024-03-25T07:02:41;5.88;;;4.05;;
3997;SDS011;61314;53.444;9.902;2024-03-25T07:05:07;11.70;;;4.35;;
3997;SDS011;61314;53.444;9.902;2024-03-25T07:07:34;12.55;;;4.63;;
3997;SDS011;61314;53.444;9.902;2024-03-25T07:10:00;7.38;;;4.25;;
3997;SDS011;61314;53.444;9.902;2024-03-25T07:12:27;15.07;;;6.38;;
3997;SDS011;61314;53.444;9.902;2024-03-25T07:14:54;9.27;;;4.68;;
3997;SDS011;61314;53.444;9.902;2024-03-25T07:17:20;6.53;;;3.80;;
3997;SDS011;61314;53.444;9.902;2024-03-25T07:19:49;7.53;;;4.40;;
3997;SDS011;61314;53.444;9.902;2024-03-25T07:22:15;8.30;;;4.05;;
3997;SDS011;61314;53.444;9.902;2024-03-25T07:24:42;13.18;;;4.65;;
3997;SDS011;61314;53.444;9.902;2024-03-25T07:27:08;6.60;;;3.90;;
3997;SDS011;61314;53.444;9.902;2024-03-25T07:29:35;8.90;;;4.22;;
3997;SDS011;61314;53.444;9.902;2024-03-25T07:32:01;17.17;;;4.88;;
3997;SDS011;61314;53.444;9.902;2024-03-25T07:34:27;8.73;;;3.90;;
3997;SDS011;61314;53.444;9.902;2024-03-25T07:36:53;16.13;;;4.20;;
3997;SDS011;61314;53.444;9.902;2024-03-25T07:39:19;8.55;;;3.92;;
3997;SDS011;61314;53.444;9.902;2024-03-25T07:41:49;8.30;;;5.65;;
3997;SDS011;61314;53.444;9.902;2024-03-25T07:44:15;8.18;;;4.20;;
3997;SDS011;61314;53.444;9.902;2024-03-25T07:46:41;8.93;;;4.50;;
3997;SDS011;61314;53.444;9.902;2024-03-25T07:49:07;6.72;;;3.83;;
3997;SDS011;61314;53.444;9.902;2024-03-25T07:51:34;6.18;;;4.20;;
3997;SDS011;61314;53.444;9.902;2024-03-25T07:54:04;8.88;;;4.25;;
3997;SDS011;61314;53.444;9.902;2024-03-25T07:56:31;10.27;;;4.55;;
3997;SDS011;61314;53.444;9.902;2024-03-25T07:59:02;5.55;;;4.18;;
3997;SDS011;61314;53.444;9.902;2024-03-25T08:01:29;14.35;;;3.90;;
3997;SDS011;61314;53.444;9.902;2024-03-25T08:03:55;10.45;;;5.22;;
3997;SDS011;61314;53.444;9.902;2024-03-25T08:06:22;23.77;;;5.00;;
3997;SDS011;61314;53.444;9.902;2024-03-25T08:08:48;16.88;;;5.25;;
3997;SDS011;61314;53.444;9.902;2024-03-25T08:11:14;14.65;;;5.35;;
3997;SDS011;61314;53.444;9.902;2024-03-25T08:13:40;10.02;;;4.20;;
3997;SDS011;61314;53.444;9.902;2024-03-25T08:16:06;14.50;;;4.68;;
3997;SDS011;61314;53.444;9.902;2024-03-25T08:18:33;10.68;;;3.65;;
3997;SDS011;61314;53.444;9.902;2024-03-25T08:20:59;11.10;;;4.43;;
3997;SDS011;61314;53.444;9.902;2024-03-25T08:23:25;15.75;;;3.70;;
3997;SDS011;61314;53.444;9.902;2024-03-25T08:25:51;9.52;;;3.83;;
3997;SDS011;61314;53.444;9.902;2024-03-25T08:28:18;15.45;;;3.92;;
3997;SDS011;61314;53.444;9.902;2024-03-25T08:30:44;7.07;;;3.10;;
3997;SDS011;61314;53.444;9.902;2024-03-25T08:33:10;10.40;;;3.15;;
3997;SDS011;61314;53.444;9.902;2024-03-25T08:35:37;10.65;;;3.17;;
3997;SDS011;61314;53.444;9.902;2024-03-25T08:38:03;18.00;;;4.15;;
3997;SDS011;61314;53.444;9.902;2024-03-25T08:40:29;8.40;;;2.90;;
3997;SDS011;61314;53.444;9.902;2024-03-25T08:42:56;16.00;;;3.00;;
3997;SDS011;61314;53.444;9.902;2024-03-25T08:45:22;10.27;;;3.35;;
3997;SDS011;61314;53.444;9.902;2024-03-25T08:47:49;11.73;;;2.55;;
3997;SDS011;61314;53.444;9.902;2024-03-25T08:50:15;9.38;;;2.70;;
3997;SDS011;61314;53.444;9.902;2024-03-25T08:52:41;7.93;;;2.63;;
3997;SDS011;61314;53.444;9.902;2024-03-25T08:55:07;8.25;;;2.45;;
3997;SDS011;61314;53.444;9.902;2024-03-25T08:57:34;16.50;;;3.08;;
3997;SDS011;61314;53.444;9.902;2024-03-25T09:00:00;8.88;;;3.00;;
3997;SDS011;61314;53.444;9.902;2024-03-25T09:02:29;16.73;;;3.25;;
3997;SDS011;61314;53.444;9.902;2024-03-25T09:04:55;10.93;;;2.70;;
3997;SDS011;61314;53.444;9.902;2024-03-25T09:07:22;5.88;;;2.08;;
3997;SDS011;61314;53.444;9.902;2024-03-25T09:09:48;11.35;;;3.65;;
3997;SDS011;61314;53.444;9.902;2024-03-25T09:12:33;15.05;;;2.70;;
3997;SDS011;61314;53.444;9.902;2024-03-25T09:14:59;10.05;;;2.78;;
3997;SDS011;61314;53.444;9.902;2024-03-25T09:17:25;11.30;;;2.78;;
3997;SDS011;61314;53.444;9.902;2024-03-25T09:19:51;7.00;;;2.20;;
3997;SDS011;61314;53.444;9.902;2024-03-25T09:22:17;5.70;;;2.10;;
3997;SDS011;61314;53.444;9.902;2024-03-25T09:24:43;9.23;;;2.50;;
3997;SDS011;61314;53.444;9.902;2024-03-25T09:27:10;11.13;;;2.65;;
3997;SDS011;61314;53.444;9.902;2024-03-25T09:29:36;14.25;;;2.72;;
3997;SDS011;61314;53.444;9.902;2024-03-25T09:32:02;8.13;;;2.83;;
3997;SDS011;61314;53.444;9.902;2024-03-25T09:34:29;8.77;;;2.40;;
3997;SDS011;61314;53.444;9.902;2024-03-25T09:36:55;9.90;;;2.63;;
3997;SDS011;61314;53.444;9.902;2024-03-25T09:39:21;13.20;;;2.10;;
3997;SDS011;61314;53.444;9.902;2024-03-25T09:41:48;9.65;;;2.60;;
3997;SDS011;61314;53.444;9.902;2024-03-25T09:44:15;18.55;;;3.28;;
3997;SDS011;61314;53.444;9.902;2024-03-25T09:46:41;17.48;;;4.32;;
3997;SDS011;61314;53.444;9.902;2024-03-25T09:49:07;7.90;;;2.42;;
3997;SDS011;61314;53.444;9.902;2024-03-25T09:51:33;7.97;;;2.90;;
3997;SDS011;61314;53.444;9.902;2024-03-25T09:54:00;10.00;;;3.35;;
3997;SDS011;61314;53.444;9.902;2024-03-25T09:56:26;5.10;;;2.00;;
3997;SDS011;61314;53.444;9.902;2024-03-25T09:58:52;10.35;;;2.35;;
3997;SDS011;61314;53.444;9.902;2024-03-25T10:01:19;11.90;;;4.20;;
3997;SDS011;61314;53.444;9.902;2024-03-25T10:03:45;6.28;;;2.38;;
3997;SDS011;61314;53.444;9.902;2024-03-25T10:06:11;4.35;;;2.15;;
3997;SDS011;61314;53.444;9.902;2024-03-25T10:08:38;10.48;;;3.13;;
3997;SDS011;61314;53.444;9.902;2024-03-25T10:11:04;11.48;;;2.50;;
3997;SDS011;61314;53.444;9.902;2024-03-25T10:13:30;10.13;;;2.47;;
3997;SDS011;61314;53.444;9.902;2024-03-25T10:15:56;6.03;;;2.30;;
3997;SDS011;61314;53.444;9.902;2024-03-25T10:18:23;12.73;;;2.40;;
3997;SDS011;61314;53.444;9.902;2024-03-25T10:20:50;9.25;;;2.80;;
3997;SDS011;61314;53.444;9.902;2024-03-25T10:23:23;9.52;;;2.33;;
3997;SDS011;61314;53.444;9.902;2024-03-25T10:25:52;18.45;;;3.08;;
3997;SDS011;61314;53.444;9.902;2024-03-25T10:28:19;14.02;;;2.50;;
3997;SDS011;61314;53.444;9.902;2024-03-25T10:30:45;20.13;;;2.83;;
3997;SDS011;61314;53.444;9.902;2024-03-25T10:33:12;13.98;;;1.90;;
3997;SDS011;61314;53.444;9.902;2024-03-25T10:35:39;9.20;;;2.20;;
3997;SDS011;61314;53.444;9.902;2024-03-25T10:38:06;4.75;;;2.05;;
3997;SDS011;61314;53.444;9.902;2024-03-25T10:40:34;6.38;;;1.73;;
3997;SDS011;61314;53.444;9.902;2024-03-25T10:43:07;4.45;;;1.63;;
3997;SDS011;61314;53.444;9.902;2024-03-25T10:45:34;6.20;;;1.88;;
3997;SDS011;61314;53.444;9.902;2024-03-25T10:48:07;9.35;;;2.50;;
3997;SDS011;61314;53.444;9.902;2024-03-25T10:50:35;10.20;;;2.53;;
3997;SDS011;61314;53.444;9.902;2024-03-25T10:53:02;9.02;;;2.05;;
3997;SDS011;61314;53.444;9.902;2024-03-25T10:55:31;4.05;;;2.08;;
3997;SDS011;61314;53.444;9.902;2024-03-25T10:57:58;11.70;;;3.28;;
3997;SDS011;61314;53.444;9.902;2024-03-25T11:00:25;9.98;;;2.45;;
3997;SDS011;61314;53.444;9.902;2024-03-25T11:02:52;5.93;;;1.70;;
3997;SDS011;61314;53.444;9.902;2024-03-25T11:05:18;15.07;;;2.08;;
3997;SDS011;61314;53.444;9.902;2024-03-25T11:07:45;11.77;;;2.90;;
3997;SDS011;61314;53.444;9.902;2024-03-25T11:10:11;9.43;;;1.92;;
3997;SDS011;61314;53.444;9.902;2024-03-25T11:12:38;3.33;;;1.65;;
3997;SDS011;61314;53.444;9.902;2024-03-25T11:15:06;10.27;;;1.95;;
3997;SDS011;61314;53.444;9.902;2024-03-25T11:17:33;8.10;;;1.65;;
3997;SDS011;61314;53.444;9.902;2024-03-25T11:20:09;7.70;;;1.65;;
3997;SDS011;61314;53.444;9.902;2024-03-25T11:22:36;8.23;;;2.47;;
3997;SDS011;61314;53.444;9.902;2024-03-25T11:25:06;7.00;;;1.60;;
3997;SDS011;61314;53.444;9.902;2024-03-25T11:27:34;6.55;;;1.80;;
3997;SDS011;61314;53.444;9.902;2024-03-25T11:30:02;3.83;;;1.50;;
3997;SDS011;61314;53.444;9.902;2024-03-25T11:32:40;10.85;;;2.13;;
3997;SDS011;61314;53.444;9.902;2024-03-25T11:35:08;4.10;;;1.20;;
3997;SDS011;61314;53.444;9.902;2024-03-25T11:37:41;4.40;;;1.77;;
3997;SDS011;61314;53.444;9.902;2024-03-25T11:40:10;6.88;;;1.70;;
3997;SDS011;61314;53.444;9.902;2024-03-25T11:42:43;3.58;;;1.23;;
3997;SDS011;61314;53.444;9.902;2024-03-25T11:45:19;15.07;;;2.60;;
3997;SDS011;61314;53.444;9.902;2024-03-25T11:47:46;9.05;;;2.08;;
3997;SDS011;61314;53.444;9.902;2024-03-25T11:50:13;9.50;;;2.90;;
3997;SDS011;61314;53.444;9.902;2024-03-25T11:52:40;4.97;;;1.98;;
3997;SDS011;61314;53.444;9.902;2024-03-25T11:55:09;9.10;;;1.90;;
3997;SDS011;61314;53.444;9.902;2024-03-25T11:57:37;5.90;;;2.50;;
3997;SDS011;61314;53.444;9.902;2024-03-25T12:00:04;6.38;;;2.10;;
3997;SDS011;61314;53.444;9.902;2024-03-25T12:02:30;7.03;;;2.10;;
3997;SDS011;61314;53.444;9.902;2024-03-25T12:04:57;14.13;;;2.80;;
3997;SDS011;61314;53.444;9.902;2024-03-25T12:07:23;11.53;;;2.67;;
3997;SDS011;61314;53.444;9.902;2024-03-25T12:09:49;6.80;;;1.60;;
3997;SDS011;61314;53.444;9.902;2024-03-25T12:12:34;6.82;;;2.10;;
3997;SDS011;61314;53.444;9.902;2024-03-25T12:15:00;4.22;;;2.10;;
3997;SDS011;61314;53.444;9.902;2024-03-25T12:17:28;7.60;;;1.35;;
3997;SDS011;61314;53.444;9.902;2024-03-25T12:20:12;8.97;;;1.70;;
3997;SDS011;61314;53.444;9.902;2024-03-25T12:22:39;4.45;;;2.13;;
3997;SDS011;61314;53.444;9.902;2024-03-25T12:25:06;6.10;;;1.77;;
3997;SDS011;61314;53.444;9.902;2024-03-25T12:27:32;8.40;;;2.67;;
3997;SDS011;61314;53.444;9.902;2024-03-25T12:29:59;4.63;;;1.90;;
3997;SDS011;61314;53.444;9.902;2024-03-25T12:32:36;8.67;;;1.90;;
3997;SDS011;61314;53.444;9.902;2024-03-25T12:35:03;8.30;;;2.03;;
3997;SDS011;61314;53.444;9.902;2024-03-25T12:37:32;7.07;;;1.70;;
3997;SDS011;61314;53.444;9.902;2024-03-25T12:39:58;5.70;;;1.93;;
3997;SDS011;61314;53.444;9.902;2024-03-25T12:42:25;9.00;;;2.40;;
3997;SDS011;61314;53.444;9.902;2024-03-25T12:44:52;6.80;;;2.43;;
3997;SDS011;61314;53.444;9.902;2024-03-25T12:47:18;11.23;;;1.70;;
3997;SDS011;61314;53.444;9.902;2024-03-25T12:49:45;5.35;;;2.03;;
3997;SDS011;61314;53.444;9.902;2024-03-25T12:52:11;7.72;;;1.75;;
3997;SDS011;61314;53.444;9.902;2024-03-25T12:54:37;9.30;;;1.60;;
3997;SDS011;61314;53.444;9.902;2024-03-25T12:57:04;1.20;;;1.10;;
3997;SDS011;61314;53.444;9.902;2024-03-25T12:59:31;11.25;;;2.15;;
3997;SDS011;61314;53.444;9.902;2024-03-25T13:01:57;5.97;;;1.60;;
3997;SDS011;61314;53.444;9.902;2024-03-25T13:04:23;5.17;;;1.77;;
3997;SDS011;61314;53.444;9.902;2024-03-25T13:06:49;6.07;;;1.80;;
3997;SDS011;61314;53.444;9.902;2024-03-25T13:09:15;7.13;;;2.40;;
3997;SDS011;61314;53.444;9.902;2024-03-25T13:11:41;5.27;;;2.03;;
3997;SDS011;61314;53.444;9.902;2024-03-25T13:14:11;7.80;;;1.85;;
3997;SDS011;61314;53.444;9.902;2024-03-25T13:16:38;3.17;;;1.93;;
3997;SDS011;61314;53.444;9.902;2024-03-25T13:19:04;12.18;;;2.45;;
3997;SDS011;61314;53.444;9.902;2024-03-25T13:21:30;8.70;;;1.97;;
3997;SDS011;61314;53.444;9.902;2024-03-25T13:23:57;6.70;;;2.30;;
3997;SDS011;61314;53.444;9.902;2024-03-25T13:26:23;6.50;;;2.70;;
3997;SDS011;61314;53.444;9.902;2024-03-25T13:28:49;3.70;;;1.63;;
3997;SDS011;61314;53.444;9.902;2024-03-25T13:31:15;7.63;;;1.60;;
3997;SDS011;61314;53.444;9.902;2024-03-25T13:33:41;3.80;;;1.57;;
3997;SDS011;61314;53.444;9.902;2024-03-25T13:36:07;4.60;;;1.70;;
3997;SDS011;61314;53.444;9.902;2024-03-25T13:38:34;10.87;;;1.80;;
3997;SDS011;61314;53.444;9.902;2024-03-25T13:41:01;8.60;;;2.07;;
3997;SDS011;61314;53.444;9.902;2024-03-25T13:43:28;7.00;;;1.90;;
3997;SDS011;61314;53.444;9.902;2024-03-25T13:45:54;8.05;;;2.13;;
3997;SDS011;61314;53.444;9.902;2024-03-25T13:48:20;5.35;;;1.65;;
3997;SDS011;61314;53.444;9.902;2024-03-25T13:50:47;3.67;;;1.83;;
3997;SDS011;61314;53.444;9.902;2024-03-25T13:53:13;9.18;;;1.85;;
3997;SDS011;61314;53.444;9.902;2024-03-25T13:55:40;2.55;;;1.83;;
3997;SDS011;61314;53.444;9.902;2024-03-25T13:58:07;5.90;;;1.92;;
3997;SDS011;61314;53.444;9.902;2024-03-25T14:00:34;6.90;;;2.00;;
3997;SDS011;61314;53.444;9.902;2024-03-25T14:03:01;3.65;;;1.73;;
3997;SDS011;61314;53.444;9.902;2024-03-25T14:05:28;7.53;;;1.90;;
3997;SDS011;61314;53.444;9.902;2024-03-25T14:07:54;4.30;;;1.70;;
3997;SDS011;61314;53.444;9.902;2024-03-25T14:10:21;11.93;;;2.10;;
3997;SDS011;61314;53.444;9.902;2024-03-25T14:12:47;5.17;;;1.93;;
3997;SDS011;61314;53.444;9.902;2024-03-25T14:15:14;4.70;;;2.13;;
3997;SDS011;61314;53.444;9.902;2024-03-25T14:17:40;6.93;;;2.25;;
3997;SDS011;61314;53.444;9.902;2024-03-25T14:20:06;12.90;;;1.97;;
3997;SDS011;61314;53.444;9.902;2024-03-25T14:22:34;3.67;;;1.60;;
3997;SDS011;61314;53.444;9.902;2024-03-25T14:25:00;3.67;;;1.80;;
3997;SDS011;61314;53.444;9.902;2024-03-25T14:27:26;6.83;;;2.20;;
3997;SDS011;61314;53.444;9.902;2024-03-25T14:29:52;4.07;;;1.70;;
3997;SDS011;61314;53.444;9.902;2024-03-25T14:32:19;5.13;;;1.77;;
3997;SDS011;61314;53.444;9.902;2024-03-25T14:34:46;2.43;;;1.50;;
3997;SDS011;61314;53.444;9.902;2024-03-25T14:37:12;5.63;;;1.90;;
3997;SDS011;61314;53.444;9.902;2024-03-25T14:39:39;5.38;;;2.03;;
3997;SDS011;61314;53.444;9.902;2024-03-25T14:42:07;6.53;;;1.87;;
3997;SDS011;61314;53.444;9.902;2024-03-25T14:44:33;6.00;;;1.67;;
3997;SDS011;61314;53.444;9.902;2024-03-25T14:46:59;3.83;;;1.90;;
3997;SDS011;61314;53.444;9.902;2024-03-25T14:49:25;5.60;;;2.03;;
3997;SDS011;61314;53.444;9.902;2024-03-25T14:51:52;2.65;;;1.63;;
3997;SDS011;61314;53.444;9.902;2024-03-25T14:54:18;6.37;;;2.70;;
3997;SDS011;61314;53.444;9.902;2024-03-25T14:56:45;4.25;;;1.48;;